Time;durP1;ratioP1;P1;durP2;ratioP2;P2;SDS_P1;SDS_P2;PMS_P1;PMS_P2;Temp;Humidity;BMP_temperature;BMP_pressure;BME280_temperature;BME280_humidity;BME280_pressure;Samples;Min_cycle;Max_cycle;Signal;HPM_P1;HPM_P2
2023/06/17 00:02:14;;;;;;;5.55;1.10;;;;;;;17.54;100.00;94149.94;5014778;28;20259;-85
2023/06/17 00:04:40;;;;;;;2.73;1.00;;;;;;;17.41;100.00;94137.97;5012874;28;20469;-85
2023/06/17 00:07:05;;;;;;;2.00;1.10;;;;;;;17.44;100.00;94134.78;5012579;28;20187;-86
2023/06/17 00:09:31;;;;;;;2.00;1.17;;;;;;;17.28;100.00;94109.28;5013704;28;20204;-85
2023/06/17 00:12:02;;;;;;;1.08;0.90;;;;;;;17.55;100.00;94143.53;5013513;28;20179;-85
2023/06/17 00:14:27;;;;;;;5.28;1.10;;;;;;;17.42;100.00;94126.25;5011717;28;20207;-85
2023/06/17 00:16:53;;;;;;;4.15;1.58;;;;;;;17.46;100.00;94126.53;5014509;28;20196;-85
2023/06/17 00:19:20;;;;;;;1.75;1.20;;;;;;;17.18;100.00;94094.16;5013721;28;20418;-85
2023/06/17 00:21:52;;;;;;;3.83;1.23;;;;;;;17.48;100.00;94137.69;5014426;28;20161;-85
2023/06/17 00:24:18;;;;;;;1.17;1.08;;;;;;;17.43;100.00;94133.19;5012397;28;20426;-85
2023/06/17 00:26:44;;;;;;;2.15;1.20;;;;;;;17.21;100.00;94104.22;5014554;28;20413;-85
2023/06/17 00:29:09;;;;;;;1.60;1.50;;;;;;;17.13;100.00;94098.66;5013119;28;20176;-86
2023/06/17 00:31:35;;;;;;;1.35;1.25;;;;;;;17.07;100.00;94102.41;5012865;28;20722;-85
2023/06/17 00:34:00;;;;;;;3.03;1.52;;;;;;;17.15;100.00;94117.81;5029410;28;20177;-85
2023/06/17 00:36:26;;;;;;;1.60;1.50;;;;;;;17.28;100.00;94127.91;5013236;28;20492;-84
2023/06/17 00:38:52;;;;;;;1.60;1.50;;;;;;;17.26;100.00;94119.41;5012992;28;20489;-84
2023/06/17 00:41:19;;;;;;;2.30;1.65;;;;;;;17.18;100.00;94096.81;5014033;28;20192;-84
2023/06/17 00:43:44;;;;;;;3.30;1.40;;;;;;;17.34;100.00;94134.81;5013674;28;20450;-85
2023/06/17 00:46:26;;;;;;;2.60;1.67;;;;;;;17.09;100.00;94117.03;5014020;28;20715;-85
2023/06/17 00:48:52;;;;;;;1.70;1.42;;;;;;;17.04;100.00;94105.63;5013652;28;20232;-85
2023/06/17 00:51:17;;;;;;;2.20;1.40;;;;;;;17.20;100.00;94133.78;5011500;28;20207;-85
2023/06/17 00:53:43;;;;;;;1.75;1.52;;;;;;;16.93;100.00;94089.69;5012558;28;20230;-85
2023/06/17 00:56:08;;;;;;;1.45;1.35;;;;;;;17.16;100.00;94122.06;5011248;28;20192;-85
2023/06/17 00:58:35;;;;;;;2.95;1.60;;;;;;;17.18;100.00;94117.28;5012589;28;20557;-86
2023/06/17 01:01:00;;;;;;;2.75;1.92;;;;;;;17.17;100.00;94113.03;5012552;28;20191;-86
2023/06/17 01:03:26;;;;;;;3.33;1.98;;;;;;;17.10;100.00;94099.22;5013309;28;20172;-86
2023/06/17 01:05:56;;;;;;;2.30;1.70;;;;;;;16.58;100.00;94025.91;5013665;28;20406;-86
2023/06/17 01:08:33;;;;;;;3.08;1.92;;;;;;;17.02;100.00;94100.56;5013554;28;20883;-85
2023/06/17 01:10:58;;;;;;;3.28;1.90;;;;;;;17.14;100.00;94109.03;5013796;28;20160;-85
2023/06/17 01:13:26;;;;;;;2.55;1.92;;;;;;;17.07;100.00;94108.53;5012180;28;20168;-85
2023/06/17 01:15:53;;;;;;;2.00;1.80;;;;;;;16.89;100.00;94090.47;5012655;28;20437;-85
2023/06/17 01:18:19;;;;;;;2.58;2.20;;;;;;;16.88;100.00;94116.25;5028586;28;20256;-85
2023/06/17 01:20:48;;;;;;;2.88;2.00;;;;;;;16.90;100.00;94116.00;5013601;28;20157;-85
2023/06/17 01:23:15;;;;;;;2.10;1.90;;;;;;;16.98;100.00;94116.25;5013280;28;20173;-84
2023/06/17 01:25:41;;;;;;;3.22;1.90;;;;;;;16.87;100.00;94111.22;5013019;28;20161;-85
2023/06/17 01:28:19;;;;;;;2.10;1.90;;;;;;;16.67;100.00;94104.06;5012046;28;20463;-85
2023/06/17 01:30:48;;;;;;;2.50;2.30;;;;;;;16.77;100.00;94117.34;5010653;28;20427;-85
2023/06/17 01:33:14;;;;;;;3.42;2.20;;;;;;;16.48;100.00;94069.22;5010266;28;20503;-85
2023/06/17 01:35:51;;;;;;;2.80;2.22;;;;;;;16.44;100.00;94088.59;5010126;28;20430;-84
2023/06/17 01:38:41;;;;;;;3.75;2.00;;;;;;;16.58;100.00;94098.47;5011935;28;20176;-85
2023/06/17 01:41:11;;;;;;;4.18;2.00;;;;;;;16.71;100.00;94117.59;5011443;28;20414;-85
2023/06/17 01:43:39;;;;;;;2.47;2.20;;;;;;;16.61;100.00;94118.41;5011659;28;20421;-84
2023/06/17 01:46:06;;;;;;;2.83;1.98;;;;;;;16.50;100.00;94120.25;5012324;28;20655;-85
2023/06/17 01:48:32;;;;;;;3.03;1.98;;;;;;;16.51;100.00;94100.59;5012806;28;20232;-85
2023/06/17 01:50:58;;;;;;;3.78;2.30;;;;;;;16.49;100.00;94110.69;5012200;28;20434;-85
2023/06/17 01:53:24;;;;;;;2.80;1.95;;;;;;;16.45;100.00;94080.38;5012758;28;20215;-85
2023/06/17 01:55:50;;;;;;;2.33;2.13;;;;;;;16.71;100.00;94110.44;5012671;28;20247;-86
2023/06/17 01:58:16;;;;;;;3.50;1.92;;;;;;;16.79;100.00;94099.25;5012607;28;20168;-85
2023/06/17 02:00:41;;;;;;;2.28;2.08;;;;;;;16.95;100.00;94110.69;5012672;28;20598;-85
2023/06/17 02:03:07;;;;;;;4.68;2.33;;;;;;;16.94;100.00;94109.91;5012892;28;20586;-85
2023/06/17 02:05:32;;;;;;;2.90;2.00;;;;;;;16.77;100.00;94082.00;5012519;28;20180;-85
2023/06/17 02:07:59;;;;;;;2.30;2.10;;;;;;;16.35;100.00;94005.19;5011300;28;20195;-85
2023/06/17 02:10:25;;;;;;;8.20;3.03;;;;;;;16.88;100.00;94089.69;5012527;28;20188;-86
2023/06/17 02:12:51;;;;;;;2.35;1.90;;;;;;;16.78;100.00;94076.41;5012482;28;20200;-85
2023/06/17 02:15:16;;;;;;;2.33;2.00;;;;;;;16.91;100.00;94097.13;5012414;28;20188;-85
2023/06/17 02:17:42;;;;;;;3.28;1.88;;;;;;;16.97;100.00;94104.03;5012397;28;20211;-85
2023/06/17 02:20:09;;;;;;;3.78;1.42;;;;;;;16.62;100.00;94047.44;5012106;28;20195;-85
2023/06/17 02:22:36;;;;;;;2.63;1.70;;;;;;;16.96;100.00;94105.09;5024712;28;20180;-85
2023/06/17 02:25:02;;;;;;;2.08;1.88;;;;;;;16.85;100.00;94094.75;5011669;28;20196;-85
2023/06/17 02:27:28;;;;;;;10.02;2.17;;;;;;;16.76;100.00;94091.84;5010598;28;20184;-85
2023/06/17 02:29:53;;;;;;;2.78;1.75;;;;;;;16.99;100.00;94109.06;5012314;28;20165;-85
2023/06/17 02:32:19;;;;;;;4.03;1.80;;;;;;;16.95;100.00;94100.81;5011049;28;20211;-85
2023/06/17 02:34:48;;;;;;;1.80;1.70;;;;;;;16.86;100.00;94088.38;5012132;28;20218;-84
2023/06/17 02:37:14;;;;;;;1.75;1.63;;;;;;;16.96;100.00;94113.06;5013754;28;20994;-84
2023/06/17 02:39:40;;;;;;;1.58;1.40;;;;;;;16.67;100.00;94072.19;5016321;28;20168;-85
2023/06/17 02:42:08;;;;;;;1.88;1.67;;;;;;;16.44;100.00;94083.28;5015096;28;20418;-84
2023/06/17 02:44:33;;;;;;;2.60;1.73;;;;;;;16.57;100.00;94082.78;5014950;28;20176;-85
2023/06/17 02:46:58;;;;;;;3.10;1.60;;;;;;;16.68;100.00;94103.00;5016022;28;20184;-85
2023/06/17 02:49:24;;;;;;;5.17;2.03;;;;;;;16.65;100.00;94100.88;5014552;28;20442;-84
2023/06/17 02:51:51;;;;;;;1.98;1.70;;;;;;;16.46;100.00;94103.22;5013603;28;20823;-85
2023/06/17 02:54:16;;;;;;;1.40;1.30;;;;;;;16.44;100.00;94081.44;5015471;28;20648;-85
2023/06/17 02:56:42;;;;;;;1.30;1.20;;;;;;;16.58;100.00;94090.50;5014023;28;20223;-85
2023/06/17 02:59:08;;;;;;;2.92;1.42;;;;;;;16.52;100.00;94066.81;5015532;28;20181;-85
2023/06/17 03:01:39;;;;;;;1.55;1.45;;;;;;;16.65;100.00;94078.81;5015636;28;20191;-85
2023/06/17 03:04:05;;;;;;;1.98;1.27;;;;;;;16.76;100.00;94099.81;5013977;28;20634;-85
2023/06/17 03:06:33;;;;;;;3.30;1.50;;;;;;;16.43;100.00;94057.81;5014446;28;20418;-85
2023/06/17 03:09:00;;;;;;;1.65;1.55;;;;;;;16.68;100.00;94103.00;5013248;28;20693;-85
2023/06/17 03:11:25;;;;;;;7.05;2.00;;;;;;;16.72;100.00;94105.91;5013918;28;20168;-85
2023/06/17 03:13:51;;;;;;;2.17;1.70;;;;;;;16.71;100.00;94105.13;5013409;28;20423;-85
2023/06/17 03:16:17;;;;;;;1.70;1.60;;;;;;;16.85;100.00;94127.44;5015517;28;20258;-85
2023/06/17 03:18:42;;;;;;;2.40;2.20;;;;;;;16.60;100.00;94087.56;5015652;28;20152;-85
2023/06/17 03:21:07;;;;;;;4.07;3.65;;;;;;;16.86;100.00;94131.72;5015140;28;20795;-84
2023/06/17 03:23:33;;;;;;;3.03;2.75;;;;;;;16.77;100.00;94111.25;5014268;28;20176;-85
2023/06/17 03:25:58;;;;;;;2.20;2.00;;;;;;;16.76;100.00;94114.97;5014708;28;20415;-85
2023/06/17 03:28:24;;;;;;;3.33;2.30;;;;;;;16.40;100.00;94080.41;5014795;28;20415;-84
2023/06/17 03:30:49;;;;;;;2.80;2.10;;;;;;;16.15;100.00;94075.88;5014911;28;20414;-85
2023/06/17 03:33:15;;;;;;;2.10;1.80;;;;;;;16.47;100.00;94126.09;5015615;28;20160;-85
2023/06/17 03:35:40;;;;;;;2.90;2.00;;;;;;;16.28;100.00;94110.91;5014614;28;20426;-84
2023/06/17 03:38:07;;;;;;;2.13;1.95;;;;;;;16.19;100.00;94090.19;5013984;28;20230;-84
2023/06/17 03:40:33;;;;;;;2.13;1.92;;;;;;;16.43;100.00;94140.94;5014277;28;20654;-84
2023/06/17 03:42:58;;;;;;;10.50;2.70;;;;;;;16.51;100.00;94142.31;5014519;28;20168;-84
2023/06/17 03:45:24;;;;;;;2.10;1.90;;;;;;;16.51;100.00;94135.13;5014398;28;20204;-83
2023/06/17 03:47:49;;;;;;;2.20;2.00;;;;;;;16.42;100.00;94149.22;5013072;28;20454;-82
2023/06/17 03:50:14;;;;;;;86.68;12.93;;;;;;;16.41;100.00;94147.59;5014483;28;20227;-83
2023/06/17 03:52:40;;;;;;;62.17;9.23;;;;;;;16.39;100.00;94134.59;5014781;28;20168;-82
2023/06/17 03:55:06;;;;;;;88.43;10.20;;;;;;;16.54;100.00;94147.06;5014888;28;20248;-82
2023/06/17 03:57:31;;;;;;;74.50;10.32;;;;;;;16.55;100.00;94146.81;5014815;28;20173;-84
2023/06/17 03:59:57;;;;;;;80.43;10.30;;;;;;;16.40;100.00;94149.47;5015368;28;20221;-82
2023/06/17 04:02:22;;;;;;;60.63;9.88;;;;;;;16.48;100.00;94156.91;5013451;28;20207;-83
2023/06/17 04:04:52;;;;;;;3.40;1.83;;;;;;;16.13;100.00;94162.16;5013810;28;20421;-83
2023/06/17 04:07:18;;;;;;;1.60;1.50;;;;;;;16.12;100.00;94158.69;5014761;28;20184;-83
2023/06/17 04:09:43;;;;;;;1.75;1.65;;;;;;;16.19;100.00;94140.66;5013383;28;20184;-83
2023/06/17 04:12:09;;;;;;;3.88;1.60;;;;;;;16.19;100.00;94147.81;5014763;28;20248;-83
2023/06/17 04:14:35;;;;;;;3.20;1.90;;;;;;;16.21;100.00;94169.59;5013531;28;20414;-85
2023/06/17 04:17:01;;;;;;;3.45;2.10;;;;;;;16.04;100.00;94145.94;5013035;28;20327;-82
2023/06/17 04:19:27;;;;;;;3.75;1.70;;;;;;;15.85;100.00;94134.19;5013673;28;20430;-82
2023/06/17 04:21:52;;;;;;;2.22;1.60;;;;;;;16.18;100.00;94164.81;5014078;28;20176;-83
2023/06/17 04:24:18;;;;;;;1.48;1.38;;;;;;;16.29;100.00;94166.44;5014331;28;20633;-83
2023/06/17 04:26:44;;;;;;;2.13;1.40;;;;;;;16.38;100.00;94180.00;5014613;28;20259;-84
2023/06/17 04:29:10;;;;;;;1.58;1.48;;;;;;;16.21;100.00;94151.03;5013048;28;20914;-83
2023/06/17 04:31:40;;;;;;;1.45;1.35;;;;;;;15.99;100.00;94153.09;5013194;28;20255;-84
2023/06/17 04:34:05;;;;;;;1.38;1.25;;;;;;;16.04;100.00;94161.06;5012099;28;20563;-83
2023/06/17 04:36:30;;;;;;;1.40;1.30;;;;;;;15.90;100.00;94157.31;5012216;28;20437;-83
2023/06/17 04:38:56;;;;;;;1.63;1.20;;;;;;;15.93;100.00;94139.00;5013405;28;20168;-83
2023/06/17 04:41:21;;;;;;;1.45;1.35;;;;;;;16.41;100.00;94188.25;5013178;28;20176;-83
2023/06/17 04:43:48;;;;;;;1.80;1.27;;;;;;;16.34;100.00;94173.63;5012827;28;20448;-81
2023/06/17 04:46:17;;;;;;;2.10;1.17;;;;;;;16.43;100.00;94199.41;5014156;28;20185;-82
2023/06/17 04:48:46;;;;;;;1.30;1.02;;;;;;;16.23;100.00;94162.19;5013742;28;20630;-83
2023/06/17 04:51:12;;;;;;;1.27;1.17;;;;;;;16.51;100.00;94203.41;5013244;28;20188;-82
2023/06/17 04:53:38;;;;;;;1.10;1.10;;;;;;;16.60;100.00;94194.63;5013324;28;20204;-82
2023/06/17 04:56:06;;;;;;;2.10;1.15;;;;;;;16.70;100.00;94196.53;5013060;28;20197;-83
2023/06/17 04:58:32;;;;;;;1.40;1.30;;;;;;;16.71;100.00;94189.38;5013439;28;20184;-83
2023/06/17 05:00:57;;;;;;;1.20;1.10;;;;;;;16.76;100.00;94187.53;5013003;28;20172;-83
2023/06/17 05:03:23;;;;;;;1.23;1.00;;;;;;;16.73;100.00;94168.66;5013557;28;20172;-83
2023/06/17 05:05:48;;;;;;;1.60;1.10;;;;;;;16.55;100.00;94180.56;5013052;28;20464;-81
2023/06/17 05:08:14;;;;;;;2.15;1.48;;;;;;;16.55;100.00;94185.88;5014093;28;20152;-82
2023/06/17 05:10:39;;;;;;;1.15;1.05;;;;;;;16.68;100.00;94198.69;5013416;28;20247;-82
2023/06/17 05:13:05;;;;;;;2.28;1.33;;;;;;;16.66;100.00;94189.38;5013415;28;20303;-83
2023/06/17 05:15:30;;;;;;;1.95;1.25;;;;;;;16.80;100.00;94198.41;5012782;28;20204;-82
2023/06/17 05:17:55;;;;;;;1.73;1.00;;;;;;;16.78;100.00;94203.19;5012703;28;20548;-82
2023/06/17 05:20:21;;;;;;;0.90;0.85;;;;;;;16.67;100.00;94185.66;5012659;28;20180;-82
2023/06/17 05:22:46;;;;;;;1.00;0.87;;;;;;;16.66;100.00;94202.66;5012266;28;21252;-81
2023/06/17 05:25:12;;;;;;;1.80;0.83;;;;;;;16.59;100.00;94200.25;5013091;28;20417;-81
2023/06/17 05:27:38;;;;;;;1.33;0.90;;;;;;;16.62;100.00;94205.03;5013197;28;20256;-81
2023/06/17 05:30:05;;;;;;;1.27;0.80;;;;;;;16.46;100.00;94196.22;5012773;28;20411;-81
2023/06/17 05:32:30;;;;;;;1.35;0.73;;;;;;;16.46;100.00;94192.75;5010279;28;20184;-80
2023/06/17 05:34:56;;;;;;;0.93;0.80;;;;;;;16.32;100.00;94204.97;5011331;28;20411;-80
2023/06/17 05:37:21;;;;;;;1.42;0.70;;;;;;;16.30;100.00;94212.41;5012413;28;20665;-81
2023/06/17 05:39:46;;;;;;;1.20;0.90;;;;;;;16.35;100.00;94209.75;5012552;28;20168;-81
2023/06/17 05:42:12;;;;;;;1.27;1.15;;;;;;;16.35;100.00;94202.56;5012987;28;20672;-82
2023/06/17 05:44:37;;;;;;;1.00;0.90;;;;;;;16.10;100.00;94179.41;5012149;28;20176;-80
2023/06/17 05:47:03;;;;;;;1.98;0.90;;;;;;;16.21;100.00;94189.00;5012227;28;20179;-81
2023/06/17 05:49:28;;;;;;;1.85;0.68;;;;;;;16.33;100.00;94190.63;5010679;28;20649;-81
2023/06/17 05:51:54;;;;;;;6.60;3.40;;;;;;;16.41;100.00;94208.72;5027086;28;20365;-81
2023/06/17 05:54:19;;;;;;;3.05;2.75;;;;;;;16.33;100.00;94183.47;5012035;28;20180;-85
2023/06/17 05:56:44;;;;;;;2.55;2.35;;;;;;;16.45;100.00;94210.56;5010514;28;20200;-82
2023/06/17 05:59:10;;;;;;;1.17;1.08;;;;;;;16.46;100.00;94206.06;5012064;28;20164;-81
2023/06/17 06:01:35;;;;;;;2.40;1.25;;;;;;;16.34;100.00;94202.84;5011789;28;20186;-81
2023/06/17 06:04:02;;;;;;;1.13;1.02;;;;;;;16.21;100.00;94177.56;5012089;28;20241;-81
2023/06/17 06:06:27;;;;;;;1.88;1.35;;;;;;;16.16;100.00;94157.13;5012976;28;20633;-81
2023/06/17 06:08:53;;;;;;;0.80;0.80;;;;;;;16.52;100.00;94205.00;5013155;28;20156;-79
2023/06/17 06:11:18;;;;;;;1.58;1.33;;;;;;;16.58;100.00;94198.66;5011617;28;20176;-81
2023/06/17 06:13:43;;;;;;;0.70;0.70;;;;;;;16.50;100.00;94185.88;5010369;28;20259;-81
2023/06/17 06:16:09;;;;;;;1.00;0.80;;;;;;;16.59;100.00;94203.69;5011592;28;20192;-83
2023/06/17 06:18:34;;;;;;;0.88;0.70;;;;;;;16.59;100.00;94209.00;5011284;28;20164;-81
2023/06/17 06:21:00;;;;;;;0.82;0.82;;;;;;;16.55;100.00;94210.59;5011618;28;20271;-82
2023/06/17 06:23:25;;;;;;;1.10;0.85;;;;;;;16.30;100.00;94152.09;5011940;28;20164;-82
2023/06/17 06:25:50;;;;;;;1.00;1.00;;;;;;;16.72;100.00;94207.72;5011424;28;20172;-81
2023/06/17 06:28:16;;;;;;;0.70;0.70;;;;;;;16.67;100.00;94201.59;5011308;28;20175;-81
2023/06/17 06:30:41;;;;;;;3.55;0.80;;;;;;;16.73;100.00;94214.63;5011225;28;20196;-81
2023/06/17 06:33:06;;;;;;;1.95;0.90;;;;;;;16.75;100.00;94220.50;5011200;28;20694;-81
2023/06/17 06:35:32;;;;;;;2.33;0.93;;;;;;;16.70;100.00;94201.84;5011480;28;20200;-85
2023/06/17 06:37:57;;;;;;;3.10;1.13;;;;;;;16.78;100.00;94211.97;5011307;28;20172;-84
2023/06/17 06:40:22;;;;;;;2.65;1.80;;;;;;;16.66;100.00;94197.34;5011363;28;20250;-84
2023/06/17 06:42:48;;;;;;;1.30;1.20;;;;;;;16.84;100.00;94207.47;5011012;28;20611;-84
2023/06/17 06:45:13;;;;;;;1.00;1.00;;;;;;;16.99;100.00;94226.06;5009052;28;20303;-84
2023/06/17 06:47:39;;;;;;;2.50;1.30;;;;;;;16.80;100.00;94172.63;5009012;28;20593;-84
2023/06/17 06:50:05;;;;;;;1.30;1.20;;;;;;;17.09;100.00;94207.47;5009168;28;20263;-83
2023/06/17 06:52:31;;;;;;;2.05;1.80;;;;;;;17.16;100.00;94213.31;5010983;28;20662;-83
2023/06/17 06:54:56;;;;;;;1.85;1.60;;;;;;;17.11;100.00;94201.88;5008496;28;20177;-85
2023/06/17 06:57:22;;;;;;;2.13;1.88;;;;;;;17.15;100.00;94211.72;5010676;28;20175;-83
2023/06/17 06:59:47;;;;;;;1.50;1.40;;;;;;;17.16;100.00;94196.56;5009770;28;20295;-83
2023/06/17 07:02:13;;;;;;;1.73;1.63;;;;;;;17.38;100.00;94217.56;5011010;28;20180;-83
2023/06/17 07:04:38;;;;;;;1.60;1.48;;;;;;;17.50;100.00;94224.16;5011029;28;20161;-82
2023/06/17 07:07:04;;;;;;;1.40;1.30;;;;;;;17.43;100.00;94191.72;5011423;28;20917;-85
2023/06/17 07:09:29;;;;;;;0.95;0.95;;;;;;;17.51;100.00;94220.44;5011960;28;20168;-82
2023/06/17 07:11:55;;;;;;;0.90;0.90;;;;;;;17.48;100.00;94218.31;5010900;28;20165;-81
2023/06/17 07:14:20;;;;;;;1.05;1.00;;;;;;;17.58;100.00;94220.97;5027454;28;20211;-85
2023/06/17 07:16:47;;;;;;;1.60;1.50;;;;;;;17.61;100.00;94215.09;5010916;28;20188;-82
2023/06/17 07:19:13;;;;;;;4.18;2.53;;;;;;;17.46;100.00;94193.84;5010755;28;20731;-85
2023/06/17 07:21:38;;;;;;;1.35;1.25;;;;;;;17.70;100.00;94216.19;5025982;28;20192;-82
2023/06/17 07:24:04;;;;;;;1.67;1.50;;;;;;;17.70;100.00;94218.03;5013783;28;20164;-83
2023/06/17 07:26:29;;;;;;;1.13;1.05;;;;;;;17.69;100.00;94211.91;5014423;28;20642;-83
2023/06/17 07:28:55;;;;;;;2.10;1.00;;;;;;;17.77;100.00;94218.56;5015131;28;20189;-83
2023/06/17 07:31:22;;;;;;;4.93;1.10;;;;;;;17.61;100.00;94217.78;5014464;28;20168;-82
2023/06/17 07:33:48;;;;;;;0.90;0.73;;;;;;;17.75;100.00;94231.34;5012350;28;20161;-83
2023/06/17 07:36:13;;;;;;;1.27;1.00;;;;;;;17.86;100.00;94229.44;5014009;28;20211;-83
2023/06/17 07:38:39;;;;;;;0.90;0.90;;;;;;;17.80;100.00;94233.19;5014394;28;20169;-83
2023/06/17 07:41:04;;;;;;;2.40;0.95;;;;;;;17.70;100.00;94212.72;5028930;28;20534;-84
2023/06/17 07:43:30;;;;;;;2.67;0.82;;;;;;;17.79;100.00;94207.63;5013598;28;20176;-84
2023/06/17 07:45:56;;;;;;;0.70;0.70;;;;;;;17.95;100.00;94209.19;5012896;28;20183;-84
2023/06/17 07:48:22;;;;;;;0.90;0.90;;;;;;;18.15;100.00;94235.75;5013890;28;20299;-84
2023/06/17 07:50:47;;;;;;;0.95;0.70;;;;;;;17.83;100.00;94228.13;5012832;28;20260;-83
2023/06/17 07:53:13;;;;;;;0.73;0.70;;;;;;;18.01;100.00;94240.03;5014608;28;20172;-82
2023/06/17 07:55:39;;;;;;;0.70;0.70;;;;;;;18.00;100.00;94215.28;5014027;28;20279;-85
2023/06/17 07:58:04;;;;;;;0.95;0.95;;;;;;;18.36;100.00;94242.56;5014160;28;20656;-82
2023/06/17 08:00:30;;;;;;;4.25;1.10;;;;;;;18.39;100.00;94212.72;5014034;28;20185;-83
2023/06/17 08:02:55;;;;;;;1.58;1.48;;;;;;;18.51;100.00;94222.25;5011122;28;20214;-83
2023/06/17 08:05:21;;;;;;;2.53;0.70;;;;;;;18.77;100.00;94251.16;5013795;28;20169;-84
2023/06/17 08:07:47;;;;;;;0.95;0.60;;;;;;;18.69;100.00;94226.94;5013757;28;20645;-84
2023/06/17 08:10:12;;;;;;;0.75;0.60;;;;;;;18.72;100.00;94218.41;5013670;28;20616;-85
2023/06/17 08:12:37;;;;;;;5.57;0.90;;;;;;;18.91;99.97;94253.22;5013344;28;20243;-82
2023/06/17 08:15:03;;;;;;;3.53;0.80;;;;;;;18.77;99.76;94243.16;5013321;28;20224;-81
2023/06/17 08:17:29;;;;;;;0.60;0.60;;;;;;;18.71;100.00;94238.94;5011192;28;20671;-81
2023/06/17 08:19:55;;;;;;;0.60;0.60;;;;;;;18.73;97.80;94241.34;5013629;28;20169;-82
2023/06/17 08:22:21;;;;;;;3.38;0.85;;;;;;;18.70;98.13;94261.34;5013409;28;20184;-81
2023/06/17 08:24:47;;;;;;;0.80;0.80;;;;;;;18.37;97.97;94262.81;5026764;28;20180;-83
2023/06/17 08:27:13;;;;;;;2.30;0.65;;;;;;;18.26;99.96;94229.28;5010399;28;20262;-82
2023/06/17 08:29:39;;;;;;;0.90;0.90;;;;;;;18.28;100.00;94237.00;5011927;28;20255;-83
2023/06/17 08:32:05;;;;;;;2.00;1.10;;;;;;;18.10;100.00;94206.44;5012323;28;20180;-82
2023/06/17 08:34:32;;;;;;;1.27;1.10;;;;;;;18.46;100.00;94263.84;5012187;28;20559;-80
2023/06/17 08:37:02;;;;;;;1.30;1.20;;;;;;;18.28;99.91;94261.00;5012988;28;20629;-80
2023/06/17 08:39:28;;;;;;;1.27;1.17;;;;;;;18.41;100.00;94266.53;5013581;28;20168;-80
2023/06/17 08:41:53;;;;;;;1.15;1.05;;;;;;;18.34;100.00;94241.22;5011963;28;20222;-81
2023/06/17 08:44:22;;;;;;;1.40;1.30;;;;;;;18.26;100.00;94215.94;5012279;28;20175;-82
2023/06/17 08:46:50;;;;;;;1.23;1.13;;;;;;;18.55;100.00;94263.25;5012015;28;20180;-78
2023/06/17 08:49:16;;;;;;;1.48;1.38;;;;;;;18.44;100.00;94251.84;5011358;28;20220;-79
2023/06/17 08:51:42;;;;;;;2.80;1.40;;;;;;;18.50;100.00;94244.66;5010293;28;20970;-83
2023/06/17 08:54:10;;;;;;;2.92;1.50;;;;;;;18.75;100.00;94268.53;5012755;28;20176;-77
2023/06/17 08:56:36;;;;;;;2.97;1.77;;;;;;;18.47;100.00;94212.13;5012645;28;20188;-79
2023/06/17 08:59:01;;;;;;;2.05;1.60;;;;;;;18.55;100.00;94247.28;5011964;28;20183;-79
2023/06/17 09:01:27;;;;;;;1.75;1.60;;;;;;;18.66;100.00;94262.97;5012118;28;20178;-80
2023/06/17 09:03:53;;;;;;;1.83;1.67;;;;;;;18.62;100.00;94255.78;5010922;28;20274;-80
2023/06/17 09:06:20;;;;;;;2.38;1.60;;;;;;;18.69;100.00;94267.75;5012557;28;20198;-83
2023/06/17 09:08:47;;;;;;;2.28;1.92;;;;;;;18.62;100.00;94245.13;5010912;28;20227;-83
2023/06/17 09:11:14;;;;;;;2.05;1.80;;;;;;;18.57;100.00;94261.97;5012228;28;20173;-81
2023/06/17 09:13:39;;;;;;;1.52;1.42;;;;;;;18.36;100.00;94221.25;5012605;28;20180;-88
2023/06/17 09:16:05;;;;;;;1.98;1.50;;;;;;;18.56;100.00;94255.00;5028008;28;20196;-83
2023/06/17 09:18:34;;;;;;;3.45;1.65;;;;;;;18.57;100.00;94255.81;5013654;28;20172;-85
2023/06/17 09:21:02;;;;;;;1.50;1.40;;;;;;;18.26;100.00;94199.16;5012555;28;20560;-84
2023/06/17 09:23:27;;;;;;;1.52;1.42;;;;;;;18.51;100.00;94219.59;5012497;28;20649;-84
2023/06/17 09:26:03;;;;;;;2.40;1.98;;;;;;;18.83;100.00;94251.94;5008550;28;20263;-84
2023/06/17 09:28:29;;;;;;;2.55;1.77;;;;;;;18.92;100.00;94254.81;5023209;28;20275;-84
2023/06/17 09:30:57;;;;;;;3.38;1.63;;;;;;;18.87;100.00;94244.16;5009270;28;20267;-85
2023/06/17 09:33:24;;;;;;;1.73;1.45;;;;;;;18.95;100.00;94247.03;5008343;28;20263;-85
2023/06/17 09:36:04;;;;;;;2.92;1.67;;;;;;;18.90;100.00;94236.41;5007120;28;20207;-84
2023/06/17 09:38:30;;;;;;;1.55;1.45;;;;;;;19.26;100.00;94268.19;5007862;28;20242;-84
2023/06/17 09:40:58;;;;;;;1.27;1.20;;;;;;;19.21;100.00;94247.66;5008378;28;20188;-84
2023/06/17 09:43:27;;;;;;;1.20;1.20;;;;;;;19.26;100.00;94223.59;5009254;28;20263;-84
2023/06/17 09:46:02;;;;;;;1.17;1.08;;;;;;;19.57;99.39;94259.66;5023868;28;20188;-84
2023/06/17 09:48:31;;;;;;;1.13;1.10;;;;;;;19.63;99.52;94244.41;5009658;28;20227;-84
2023/06/17 09:50:58;;;;;;;1.15;1.02;;;;;;;19.93;99.00;94270.78;5008546;28;20637;-84
2023/06/17 09:53:27;;;;;;;0.98;0.95;;;;;;;19.81;97.73;94237.50;5009671;28;20173;-85
2023/06/17 09:55:56;;;;;;;1.10;1.10;;;;;;;19.91;96.53;94248.09;5008155;28;20232;-85
2023/06/17 09:58:24;;;;;;;1.10;1.10;;;;;;;19.88;96.13;94248.69;5008495;28;20291;-84
2023/06/17 10:00:51;;;;;;;1.23;1.10;;;;;;;20.04;95.02;94265.34;5009322;28;20608;-84
2023/06/17 10:03:17;;;;;;;1.30;1.20;;;;;;;20.09;95.00;94270.63;5008060;28;20187;-84
2023/06/17 10:05:48;;;;;;;1.23;1.17;;;;;;;20.12;94.27;94273.53;5009049;28;20188;-84
2023/06/17 10:08:15;;;;;;;1.25;1.15;;;;;;;20.17;93.86;94281.47;5009568;28;20183;-84
2023/06/17 10:10:41;;;;;;;1.05;1.05;;;;;;;20.04;93.30;94274.16;5007960;28;20195;-84
2023/06/17 10:13:09;;;;;;;2.80;1.35;;;;;;;19.85;93.70;94243.91;5009443;28;20645;-84
2023/06/17 10:15:36;;;;;;;2.15;1.38;;;;;;;19.92;94.24;94261.19;5007859;28;20202;-84
2023/06/17 10:18:02;;;;;;;2.10;1.02;;;;;;;20.07;93.88;94286.13;5008070;28;20272;-84
2023/06/17 10:20:32;;;;;;;1.73;1.10;;;;;;;19.95;93.77;94273.97;5009490;28;20187;-84
2023/06/17 10:23:00;;;;;;;1.85;1.55;;;;;;;19.87;93.87;94261.25;5007746;28;20251;-84
2023/06/17 10:25:27;;;;;;;1.20;1.10;;;;;;;19.70;93.84;94244.84;5009250;28;20164;-84
2023/06/17 10:27:52;;;;;;;1.50;1.15;;;;;;;19.64;94.61;94235.28;5009060;28;20587;-84
2023/06/17 10:30:24;;;;;;;4.28;1.60;;;;;;;19.73;94.38;94254.16;5010692;28;20176;-82
2023/06/17 10:33:01;;;;;;;2.58;1.73;;;;;;;19.91;92.52;94296.97;5008495;28;20176;-86
2023/06/17 10:35:45;;;;;;;2.17;1.65;;;;;;;19.66;92.20;94270.53;5009874;28;20207;-89
2023/06/17 10:38:28;;;;;;;2.25;1.52;;;;;;;19.20;93.14;94217.50;5026559;28;20167;-85
2023/06/17 10:40:54;;;;;;;1.50;1.40;;;;;;;19.59;94.11;94291.41;5011168;28;20179;-85
2023/06/17 10:43:20;;;;;;;2.97;2.40;;;;;;;19.61;95.58;94288.47;5010185;28;20164;-83
2023/06/17 10:45:56;;;;;;;9.00;6.47;;;;;;;19.51;95.01;94289.34;5010051;28;20668;-83
2023/06/17 10:48:28;;;;;;;4.45;3.30;;;;;;;19.47;94.52;94291.78;5009976;28;20211;-85
2023/06/17 10:51:08;;;;;;;3.97;2.25;;;;;;;19.20;94.00;94268.19;5011539;28;20175;-83
2023/06/17 10:53:36;;;;;;;3.65;2.10;;;;;;;19.04;93.74;94269.38;5010192;28;20173;-83
2023/06/17 10:56:03;;;;;;;2.63;2.42;;;;;;;19.01;95.80;94272.63;5012145;28;20286;-84
2023/06/17 10:58:44;;;;;;;3.90;2.72;;;;;;;19.12;95.59;94292.81;5012205;28;20176;-86
2023/06/17 11:01:11;;;;;;;3.28;2.13;;;;;;;18.98;95.63;94297.19;5013643;28;20206;-85
2023/06/17 11:03:37;;;;;;;2.78;2.30;;;;;;;18.83;96.61;94289.28;5015252;28;20179;-84
2023/06/17 11:06:07;;;;;;;3.03;2.72;;;;;;;18.37;97.81;94233.50;5015099;28;20208;-84
2023/06/17 11:08:35;;;;;;;2.65;2.33;;;;;;;18.42;98.13;94241.47;5014870;28;20195;-89
2023/06/17 11:11:06;;;;;;;2.95;2.10;;;;;;;18.72;97.64;94295.72;5015123;28;20184;-89
2023/06/17 11:13:32;;;;;;;3.05;2.38;;;;;;;18.24;99.01;94226.13;5012721;28;20180;-93
2023/06/17 11:15:57;;;;;;;134.45;124.38;;;;;;;18.35;99.27;94250.81;5014498;28;20196;-89
2023/06/17 11:18:23;;;;;;;741.85;475.40;;;;;;;18.30;99.63;94250.84;5012291;28;20993;-84
2023/06/17 11:20:48;;;;;;;100.40;95.20;;;;;;;18.41;99.84;94282.53;5013378;28;20295;-82
2023/06/17 11:23:14;;;;;;;489.27;241.63;;;;;;;18.53;100.00;94306.19;5014370;28;20650;-80
2023/06/17 11:25:40;;;;;;;555.38;509.00;;;;;;;18.51;100.00;94288.88;5014554;28;20434;-84